Map

Track Data

SID SEASON NUMBER BASIN SUBBASIN NAME ISO_TIME NATURE LAT LON WMO_WIND WMO_PRES WMO_AGENCY TRACK_TYPE DIST2LAND LANDFALL IFLAG USA_AGENCY USA_ATCF_ID USA_LAT USA_LON USA_RECORD USA_STATUS USA_WIND USA_PRES USA_SSHS USA_R34_NE USA_R34_SE USA_R34_SW USA_R34_NW USA_R50_NE USA_R50_SE USA_R50_SW USA_R50_NW USA_R64_NE USA_R64_SE USA_R64_SW USA_R64_NW USA_POCI USA_ROCI USA_RMW USA_EYE TOKYO_LAT TOKYO_LON TOKYO_GRADE TOKYO_WIND TOKYO_PRES TOKYO_R50_DIR TOKYO_R50_LONG TOKYO_R50_SHORT TOKYO_R30_DIR TOKYO_R30_LONG TOKYO_R30_SHORT TOKYO_LAND CMA_LAT CMA_LON CMA_CAT CMA_WIND CMA_PRES HKO_LAT HKO_LON HKO_CAT HKO_WIND HKO_PRES NEWDELHI_LAT NEWDELHI_LON NEWDELHI_GRADE NEWDELHI_WIND NEWDELHI_PRES NEWDELHI_CI NEWDELHI_DP NEWDELHI_POCI REUNION_LAT REUNION_LON REUNION_TYPE REUNION_WIND REUNION_PRES REUNION_TNUM REUNION_CI REUNION_RMW REUNION_R34_NE REUNION_R34_SE REUNION_R34_SW REUNION_R34_NW REUNION_R50_NE REUNION_R50_SE REUNION_R50_SW REUNION_R50_NW REUNION_R64_NE REUNION_R64_SE REUNION_R64_SW REUNION_R64_NW BOM_LAT BOM_LON BOM_TYPE BOM_WIND BOM_PRES BOM_TNUM BOM_CI BOM_RMW BOM_R34_NE BOM_R34_SE BOM_R34_SW BOM_R34_NW BOM_R50_NE BOM_R50_SE BOM_R50_SW BOM_R50_NW BOM_R64_NE BOM_R64_SE BOM_R64_SW BOM_R64_NW BOM_ROCI BOM_POCI BOM_EYE BOM_POS_METHOD BOM_PRES_METHOD NADI_LAT NADI_LON NADI_CAT NADI_WIND NADI_PRES WELLINGTON_LAT WELLINGTON_LON WELLINGTON_WIND WELLINGTON_PRES DS824_LAT DS824_LON DS824_STAGE DS824_WIND DS824_PRES TD9636_LAT TD9636_LON TD9636_STAGE TD9636_WIND TD9636_PRES TD9635_LAT TD9635_LON TD9635_WIND TD9635_PRES TD9635_ROCI NEUMANN_LAT NEUMANN_LON NEUMANN_CLASS NEUMANN_WIND NEUMANN_PRES MLC_LAT MLC_LON MLC_CLASS MLC_WIND MLC_PRES USA_GUST BOM_GUST BOM_GUST_PER REUNION_GUST REUNION_GUST_PER USA_SEAHGT USA_SEARAD_NE USA_SEARAD_SE USA_SEARAD_SW USA_SEARAD_NW STORM_SPEED STORM_DIR
1965146N15089 1965 41 NI BB NOT_NAMED 1965-05-26 03:00:00 NR 14.9000 88.8000 main 591 579 __________O___ -1 14.9000 88.8000 1 3 49
1965146N15089 1965 41 NI BB NOT_NAMED 1965-05-26 06:00:00 TS 14.9930 88.9054 main 579 566 O________OP___ jtwc_io IO021965 15.0000 88.9000 -1 15.0000 88.9000 TC 25 14.9860 88.9108 1 3 52
1965146N15089 1965 41 NI BB NOT_NAMED 1965-05-26 09:00:00 TS 15.0575 89.0060 main 566 555 P________PP___ IO021965 15.0500 88.9975 -1 15.0500 88.9975 TC 25 15.0676 89.0174 1 2 58
1965146N15089 1965 41 NI BB NOT_NAMED 1965-05-26 12:00:00 TS 15.1161 89.1061 main 555 543 O________OP___ jtwc_io IO021965 15.1000 89.1000 -1 15.1000 89.1000 TC 25 15.1403 89.1152 1 2 61
1965146N15089 1965 41 NI BB NOT_NAMED 1965-05-26 15:00:00 TS 15.1667 89.2050 main 543 532 P________PO___ IO021965 15.1500 89.2075 -1 15.1500 89.2075 TC 25 15.2000 89.2000 1 2 61
1965146N15089 1965 41 NI BB NOT_NAMED 1965-05-26 18:00:00 TS 15.2150 89.2895 main 532 530 O________OP___ jtwc_io IO021965 15.2000 89.3000 -1 15.2000 89.3000 TC 25 15.2450 89.2685 1 2 58
1965146N15089 1965 41 NI BB NOT_NAMED 1965-05-26 21:00:00 TS 15.2567 89.3509 main 520 520 P________PP___ IO021965 15.2425 89.3650 -1 15.2425 89.3650 TC 25 15.2850 89.3226 1 1 46
1965146N15089 1965 41 NI BB NOT_NAMED 1965-05-27 00:00:00 TS 15.3108 89.3885 main 520 518 O________OP___ jtwc_io IO021965 15.3000 89.4000 -1 15.3000 89.4000 TC 25 15.3325 89.3653 1 1 13
1965146N15089 1965 41 NI BB NOT_NAMED 1965-05-27 03:00:00 TS 15.3900 89.4000 main 518 516 P________PO___ IO021965 15.3850 89.4000 -1 15.3850 89.4000 TC 25 15.4000 89.4000 1 2 0
1965146N15089 1965 41 NI BB NOT_NAMED 1965-05-27 06:00:00 TS 15.5011 89.4107 main 516 515 O________OP___ jtwc_io IO021965 15.5000 89.4000 -1 15.5000 89.4000 TC 25 15.5034 89.4322 1 3 13
1965146N15089 1965 41 NI BB NOT_NAMED 1965-05-27 09:00:00 TS 15.6425 89.4525 main 505 503 P________PP___ IO021965 15.6500 89.4500 -1 15.6500 89.4500 TC 25 15.6275 89.4575 1 3 15
1965146N15089 1965 41 NI BB NOT_NAMED 1965-05-27 12:00:00 TS 15.7876 89.4930 main 503 502 O________OP___ jtwc_io IO021965 15.8000 89.5000 -1 15.8000 89.5000 TC 25 15.7628 89.4791 1 3 7
1965146N15089 1965 41 NI BB NOT_NAMED 1965-05-27 15:00:00 TS 15.9000 89.5000 main 502 502 P________PO___ IO021965 15.9000 89.5000 -1 15.9000 89.5000 TC 25 15.9000 89.5000 1 2 3
1965146N15089 1965 41 NI BB NOT_NAMED 1965-05-27 18:00:00 TS 16.0110 89.5070 main 502 502 O________OP___ jtwc_io IO021965 16.0000 89.5000 -1 16.0000 89.5000 TC 25 16.0331 89.5210 1 3 11
1965146N15089 1965 41 NI BB NOT_NAMED 1965-05-27 21:00:00 TS 16.1550 89.5475 main 502 492 P________PP___ IO021965 16.1500 89.5500 -1 16.1500 89.5500 TC 25 16.1650 89.5425 1 3 15
1965146N15089 1965 41 NI BB NOT_NAMED 1965-05-28 00:00:00 TS 16.2965 89.5893 main 492 492 O________OP___ jtwc_io IO021965 16.3000 89.6000 -1 16.3000 89.6000 TC 25 16.2894 89.5678 1 3 14
1965146N15089 1965 41 NI BB NOT_NAMED 1965-05-28 03:00:00 TS 16.4100 89.6000 main 493 493 P________PO___ IO021965 16.4150 89.6000 -1 16.4150 89.6000 TC 25 16.4000 89.6000 1 2 4
1965146N15089 1965 41 NI BB NOT_NAMED 1965-05-28 06:00:00 TS 16.4978 89.6143 main 494 483 O________OP___ jtwc_io IO021965 16.5000 89.6000 -1 16.5000 89.6000 TC 25 16.4934 89.6428 1 2 21
1965146N15089 1965 41 NI BB NOT_NAMED 1965-05-28 09:00:00 TS 16.5575 89.6592 main 485 485 P________PP___ IO021965 16.5500 89.6425 -1 16.5500 89.6425 TC 25 16.5725 89.6925 1 2 41
1965146N15089 1965 41 NI BB NOT_NAMED 1965-05-28 12:00:00 TS 16.6134 89.7153 main 485 476 O________OP___ jtwc_io IO021965 16.6000 89.7000 -1 16.6000 89.7000 TC 25 16.6403 89.7459 1 2 36
1965146N15089 1965 41 NI BB NOT_NAMED 1965-05-28 15:00:00 TS 16.7050 89.7667 main 476 476 P________PO___ IO021965 16.7075 89.7500 -1 16.7075 89.7500 TC 25 16.7000 89.8000 1 2 30
1965146N15089 1965 41 NI BB NOT_NAMED 1965-05-28 18:00:00 TS 16.7844 89.8167 main 477 467 O________OP___ jtwc_io IO021965 16.8000 89.8000 -1 16.8000 89.8000 TC 25 16.7531 89.8500 1 1 44
1965146N15089 1965 41 NI BB NOT_NAMED 1965-05-28 21:00:00 TS 16.8000 89.8617 main 467 467 P________PP___ IO021965 16.8000 89.8425 -1 16.8000 89.8425 TC 25 16.8000 89.9000 1 1 73
1965146N15089 1965 41 NI BB NOT_NAMED 1965-05-29 00:00:00 TS 16.8156 89.9167 main 467 456 O________OP___ jtwc_io IO021965 16.8000 89.9000 -1 16.8000 89.9000 TC 25 16.8469 89.9500 1 2 54
1965146N15089 1965 41 NI BB NOT_NAMED 1965-05-29 03:00:00 TS 16.8950 90.0000 main 456 441 P________PO___ IO021965 16.8925 90.0000 -1 16.8925 90.0000 TC 25 16.9000 90.0000 1 2 43
1965146N15089 1965 41 NI BB NOT_NAMED 1965-05-29 06:00:00 TS 16.9906 90.0847 main 441 435 O________OP___ jtwc_io IO021965 17.0000 90.1000 -1 17.0000 90.1000 TC 25 16.9719 90.0541 1 2 40
1965146N15089 1965 41 NI BB NOT_NAMED 1965-05-29 09:00:00 TS 17.0550 90.1458 main 435 426 P________PP___ IO021965 17.0575 90.1650 -1 17.0575 90.1650 TC 25 17.0500 90.1075 1 2 39
1965146N15089 1965 41 NI BB NOT_NAMED 1965-05-29 12:00:00 TS 17.1094 90.1857 main 426 421 O________OP___ jtwc_io IO021965 17.1000 90.2000 -1 17.1000 90.2000 TC 25 17.1281 90.1572 1 1 27
1965146N15089 1965 41 NI BB NOT_NAMED 1965-05-29 15:00:00 TS 17.1717 90.2000 main 421 421 P________PO___ IO021965 17.1575 90.2000 -1 17.1575 90.2000 TC 25 17.2000 90.2000 1 1 0
1965146N15089 1965 41 NI BB NOT_NAMED 1965-05-29 18:00:00 TS 17.2082 90.2108 main 421 411 O________OP___ jtwc_io IO021965 17.2000 90.2000 -1 17.2000 90.2000 TC 25 17.2247 90.2322 1 1 65
1965146N15089 1965 41 NI BB NOT_NAMED 1965-05-29 21:00:00 TS 17.2008 90.2525 main 411 411 P________PP___ IO021965 17.1775 90.2500 -1 17.1775 90.2500 TC 25 17.2475 90.2576 1 1 72
1965146N15089 1965 41 NI BB NOT_NAMED 1965-05-30 00:00:00 TS 17.2322 90.2931 main 411 401 O________OP___ jtwc_io IO021965 17.2000 90.3000 -1 17.2000 90.3000 TC 25 17.2966 90.2791 1 2 10
1965146N15089 1965 41 NI BB NOT_NAMED 1965-05-30 03:00:00 TS 17.3750 90.3000 main 401 391 P________PO___ IO021965 17.3625 90.3000 -1 17.3625 90.3000 TC 30 17.4000 90.3000 1 4 0
1965146N15089 1965 41 NI BB NOT_NAMED 1965-05-30 06:00:00 TS 17.5975 90.3097 main 391 375 O________OP___ jtwc_io IO021965 17.6000 90.3000 -1 17.6000 90.3000 TC 35 17.5925 90.3290 1 5 7
1965146N15089 1965 41 NI BB NOT_NAMED 1965-05-30 09:00:00 TS 17.8417 90.3524 main 367 344 P________PP___ IO021965 17.8425 90.3500 -1 17.8425 90.3500 TC 35 17.8400 90.3574 1 5 9
1965146N15089 1965 41 NI BB NOT_NAMED 1965-05-30 12:00:00 TS 18.1058 90.3940 main 344 321 O________OP___ jtwc_io IO021965 18.1000 90.4000 -1 18.1000 90.4000 TC 35 18.1175 90.3821 1 5 6
1965146N15089 1965 41 NI BB NOT_NAMED 1965-05-30 15:00:00 TS 18.3667 90.4050 main 321 307 P________PO___ IO021965 18.3500 90.4075 -1 18.3500 90.4075 TC 35 18.4000 90.4000 3 5 0
1965146N15089 1965 41 NI BB NOT_NAMED 1965-05-30 18:00:00 TS 18.6004 90.4037 main 307 293 O________OP___ jtwc_io IO021965 18.6000 90.4000 -1 18.6000 90.4000 TC 35 18.6013 90.4112 3 5 0
1965146N15089 1965 41 NI BB NOT_NAMED 1965-05-30 21:00:00 TS 18.8267 90.4050 main 293 275 P________PP___ IO021965 18.8350 90.4000 -1 18.8350 90.4000 TC 50 18.8100 90.4149 3 5 358
1965146N15089 1965 41 NI BB NOT_NAMED 1965-05-31 00:00:00 TS 19.0879 90.4037 main 275 254 O________OP___ jtwc_io IO021965 19.1000 90.4000 -1 19.1000 90.4000 TC 65 19.0638 90.4112 3 6 358
1965146N15089 1965 41 NI BB NOT_NAMED 1965-05-31 03:00:00 TS 19.3983 90.4050 main 254 224 P________PO___ IO021965 19.3975 90.4074 -1 19.3975 90.4074 TC 65 19.4000 90.4000 4 7 0
1965146N15089 1965 41 NI BB NOT_NAMED 1965-05-31 06:00:00 TS 19.8199 90.3901 main 224 168 O________OP___ jtwc_io IO021965 19.8000 90.4000 -1 19.8000 90.4000 TC 65 19.8598 90.3704 4 10 357
1965146N15089 1965 41 NI BB NOT_NAMED 1965-05-31 09:00:00 TS 20.3759 90.3453 main 156 90 P________PP___ IO021965 20.3625 90.3502 -1 20.3625 90.3502 TC 65 20.4026 90.3356 4 12 356
1965146N15089 1965 41 NI BB NOT_NAMED 1965-05-31 12:00:00 TS 20.9981 90.3027 main 90 24 O________OP___ jtwc_io IO021965 21.0000 90.3000 -1 21.0000 90.3000 TC 65 20.9942 90.3080 4 12 357
1965146N15089 1965 41 NI BB NOT_NAMED 1965-05-31 15:00:00 TS 21.6050 90.2900 main 24 0 P________PO___ IO021965 21.6075 90.2850 -1 21.6075 90.2850 TC 50 21.6000 90.3000 4 12 0
1965146N15089 1965 41 NI BB NOT_NAMED 1965-05-31 18:00:00 TS 22.1970 90.3084 main 0 0 O________OP___ jtwc_io IO021965 22.2000 90.3000 -1 22.2000 90.3000 TC 35 22.1924 90.3210 4 12 2
1965146N15089 1965 41 NI BB NOT_NAMED 1965-05-31 21:00:00 TS 22.7642 90.3528 main 0 0 P________PP___ IO021965 22.7600 90.3424 -1 22.7600 90.3424 TC 30 22.7699 90.3666 4 11 5
1965146N15089 1965 41 NI BB NOT_NAMED 1965-06-01 00:00:00 TS 23.3187 90.4145 main 0 0 O________OP___ jtwc_io IO021965 23.3000 90.4000 -1 23.3000 90.4000 TC 25 23.3374 90.4289 4 12 7
1965146N15089 1965 41 NI BB NOT_NAMED 1965-06-01 03:00:00 NR 23.9000 90.5000 main 0 __________O___ IO021965 -1 TC 23.9000 90.5000 1 12 8

About IBTrACS Database

This database is a web-friendly format of International Best Track Archive for Climate Stewardship (IBTrACS), a global best track data archive curated by NOAA dating back to 1842.

Updated: 2021-12-01